sensor_id;sensor_type;location;lat;lon;timestamp;temperature;humidity
666;DHT22;315;48.738;9.126;2023-03-14T00:02:09;9.40;99.90
666;DHT22;315;48.738;9.126;2023-03-14T00:04:36;9.40;99.90
666;DHT22;315;48.738;9.126;2023-03-14T00:07:02;9.40;99.90
666;DHT22;315;48.738;9.126;2023-03-14T00:09:27;9.40;99.90
666;DHT22;315;48.738;9.126;2023-03-14T00:11:55;9.40;99.90
666;DHT22;315;48.738;9.126;2023-03-14T00:14:21;9.40;99.90
666;DHT22;315;48.738;9.126;2023-03-14T00:16:46;9.40;99.90
666;DHT22;315;48.738;9.126;2023-03-14T00:19:12;9.40;99.90
666;DHT22;315;48.738;9.126;2023-03-14T00:21:37;9.40;99.90
666;DHT22;315;48.738;9.126;2023-03-14T00:24:03;9.40;99.90
666;DHT22;315;48.738;9.126;2023-03-14T00:26:29;9.40;99.90
666;DHT22;315;48.738;9.126;2023-03-14T00:28:54;9.40;99.90
666;DHT22;315;48.738;9.126;2023-03-14T00:31:20;9.40;99.90
666;DHT22;315;48.738;9.126;2023-03-14T00:33:45;9.40;99.90
666;DHT22;315;48.738;9.126;2023-03-14T00:36:14;9.40;99.90
666;DHT22;315;48.738;9.126;2023-03-14T00:38:41;9.40;99.90
666;DHT22;315;48.738;9.126;2023-03-14T00:41:12;9.40;99.90
666;DHT22;315;48.738;9.126;2023-03-14T00:43:38;9.40;99.90
666;DHT22;315;48.738;9.126;2023-03-14T00:46:04;9.40;99.90
666;DHT22;315;48.738;9.126;2023-03-14T00:48:30;9.40;99.90
666;DHT22;315;48.738;9.126;2023-03-14T00:50:56;9.40;99.90
666;DHT22;315;48.738;9.126;2023-03-14T00:53:22;9.40;99.90
666;DHT22;315;48.738;9.126;2023-03-14T00:55:48;9.40;99.90
666;DHT22;315;48.738;9.126;2023-03-14T00:58:15;9.40;99.90
666;DHT22;315;48.738;9.126;2023-03-14T01:00:41;9.40;99.90
666;DHT22;315;48.738;9.126;2023-03-14T01:03:08;9.40;99.90
666;DHT22;315;48.738;9.126;2023-03-14T01:05:34;9.40;99.90
666;DHT22;315;48.738;9.126;2023-03-14T01:08:00;9.40;99.90
666;DHT22;315;48.738;9.126;2023-03-14T01:10:26;9.40;99.90
666;DHT22;315;48.738;9.126;2023-03-14T01:12:51;9.40;99.90
666;DHT22;315;48.738;9.126;2023-03-14T01:15:19;9.40;99.90
666;DHT22;315;48.738;9.126;2023-03-14T01:17:44;9.50;99.90
666;DHT22;315;48.738;9.126;2023-03-14T01:20:12;9.40;99.90
666;DHT22;315;48.738;9.126;2023-03-14T01:22:38;9.50;99.90
666;DHT22;315;48.738;9.126;2023-03-14T01:25:11;9.50;99.90
666;DHT22;315;48.738;9.126;2023-03-14T01:27:37;9.50;99.90
666;DHT22;315;48.738;9.126;2023-03-14T01:30:03;9.50;99.90
666;DHT22;315;48.738;9.126;2023-03-14T01:32:29;9.50;99.90
666;DHT22;315;48.738;9.126;2023-03-14T01:34:55;9.50;99.90
666;DHT22;315;48.738;9.126;2023-03-14T01:37:20;9.50;99.90
666;DHT22;315;48.738;9.126;2023-03-14T01:39:47;9.50;99.90
666;DHT22;315;48.738;9.126;2023-03-14T01:42:12;9.50;99.90
666;DHT22;315;48.738;9.126;2023-03-14T01:44:59;9.50;99.90
666;DHT22;315;48.738;9.126;2023-03-14T01:47:25;9.50;99.90
666;DHT22;315;48.738;9.126;2023-03-14T01:52:29;9.50;99.90
666;DHT22;315;48.738;9.126;2023-03-14T01:55:04;9.50;99.90
666;DHT22;315;48.738;9.126;2023-03-14T01:57:40;9.50;99.90
666;DHT22;315;48.738;9.126;2023-03-14T02:00:07;9.40;99.90
666;DHT22;315;48.738;9.126;2023-03-14T02:02:37;9.40;99.90
666;DHT22;315;48.738;9.126;2023-03-14T02:05:05;9.40;99.90
666;DHT22;315;48.738;9.126;2023-03-14T02:08:01;9.30;99.90
666;DHT22;315;48.738;9.126;2023-03-14T02:10:30;9.30;99.90
666;DHT22;315;48.738;9.126;2023-03-14T02:12:59;9.30;99.90
666;DHT22;315;48.738;9.126;2023-03-14T02:15:26;9.30;99.90
666;DHT22;315;48.738;9.126;2023-03-14T02:17:52;9.30;99.90
666;DHT22;315;48.738;9.126;2023-03-14T02:20:36;9.20;99.90
666;DHT22;315;48.738;9.126;2023-03-14T02:23:04;9.20;99.90
666;DHT22;315;48.738;9.126;2023-03-14T02:25:48;9.20;99.90
666;DHT22;315;48.738;9.126;2023-03-14T02:28:16;9.30;99.90
666;DHT22;315;48.738;9.126;2023-03-14T02:30:42;9.30;99.90
666;DHT22;315;48.738;9.126;2023-03-14T02:33:10;9.20;99.90
666;DHT22;315;48.738;9.126;2023-03-14T02:38:24;9.20;99.90
666;DHT22;315;48.738;9.126;2023-03-14T02:40:52;9.20;99.90
666;DHT22;315;48.738;9.126;2023-03-14T02:43:18;9.20;99.90
666;DHT22;315;48.738;9.126;2023-03-14T02:45:48;9.30;99.90
666;DHT22;315;48.738;9.126;2023-03-14T02:48:23;9.20;99.90
666;DHT22;315;48.738;9.126;2023-03-14T02:50:52;9.20;99.90
666;DHT22;315;48.738;9.126;2023-03-14T02:53:21;9.20;99.90
666;DHT22;315;48.738;9.126;2023-03-14T02:55:49;9.20;99.90
666;DHT22;315;48.738;9.126;2023-03-14T02:58:15;9.20;99.90
666;DHT22;315;48.738;9.126;2023-03-14T03:00:41;9.20;99.90
666;DHT22;315;48.738;9.126;2023-03-14T03:03:06;9.20;99.90
666;DHT22;315;48.738;9.126;2023-03-14T03:05:32;9.20;99.90
666;DHT22;315;48.738;9.126;2023-03-14T03:07:58;9.20;99.90
666;DHT22;315;48.738;9.126;2023-03-14T03:10:24;9.20;99.90
666;DHT22;315;48.738;9.126;2023-03-14T03:12:50;9.20;99.90
666;DHT22;315;48.738;9.126;2023-03-14T03:15:16;9.10;99.90
666;DHT22;315;48.738;9.126;2023-03-14T03:17:42;9.10;99.90
666;DHT22;315;48.738;9.126;2023-03-14T03:20:08;9.10;99.90
666;DHT22;315;48.738;9.126;2023-03-14T03:22:37;9.10;99.90
666;DHT22;315;48.738;9.126;2023-03-14T03:25:05;9.10;99.90
666;DHT22;315;48.738;9.126;2023-03-14T03:27:32;9.10;99.90
666;DHT22;315;48.738;9.126;2023-03-14T03:29:58;9.10;99.90
666;DHT22;315;48.738;9.126;2023-03-14T03:32:24;9.10;99.90
666;DHT22;315;48.738;9.126;2023-03-14T03:34:50;9.20;99.90
666;DHT22;315;48.738;9.126;2023-03-14T03:37:15;9.20;99.90
666;DHT22;315;48.738;9.126;2023-03-14T03:39:41;9.20;99.90
666;DHT22;315;48.738;9.126;2023-03-14T03:42:06;9.20;99.90
666;DHT22;315;48.738;9.126;2023-03-14T03:44:32;9.20;99.90
666;DHT22;315;48.738;9.126;2023-03-14T03:46:57;9.20;99.90
666;DHT22;315;48.738;9.126;2023-03-14T03:49:23;9.10;99.90
666;DHT22;315;48.738;9.126;2023-03-14T03:51:48;9.10;99.90
666;DHT22;315;48.738;9.126;2023-03-14T03:54:14;9.10;99.90
666;DHT22;315;48.738;9.126;2023-03-14T03:56:39;9.10;99.90
666;DHT22;315;48.738;9.126;2023-03-14T03:59:05;9.10;99.90
666;DHT22;315;48.738;9.126;2023-03-14T04:01:30;9.10;99.90
666;DHT22;315;48.738;9.126;2023-03-14T04:03:56;9.10;99.90
666;DHT22;315;48.738;9.126;2023-03-14T04:06:22;9.10;99.90
666;DHT22;315;48.738;9.126;2023-03-14T04:08:47;9.10;99.90
666;DHT22;315;48.738;9.126;2023-03-14T04:11:13;9.10;99.90
666;DHT22;315;48.738;9.126;2023-03-14T04:13:38;9.10;99.90
666;DHT22;315;48.738;9.126;2023-03-14T04:16:11;9.00;99.90
666;DHT22;315;48.738;9.126;2023-03-14T04:18:39;9.00;99.90
666;DHT22;315;48.738;9.126;2023-03-14T04:21:05;9.00;99.90
666;DHT22;315;48.738;9.126;2023-03-14T04:23:30;9.00;99.90
666;DHT22;315;48.738;9.126;2023-03-14T04:25:56;9.00;99.90
666;DHT22;315;48.738;9.126;2023-03-14T04:28:21;9.00;99.90
666;DHT22;315;48.738;9.126;2023-03-14T04:30:47;9.00;99.90
666;DHT22;315;48.738;9.126;2023-03-14T04:33:12;9.00;99.90
666;DHT22;315;48.738;9.126;2023-03-14T04:35:45;9.00;99.90
666;DHT22;315;48.738;9.126;2023-03-14T04:38:11;9.00;99.90
666;DHT22;315;48.738;9.126;2023-03-14T04:40:37;9.00;99.90
666;DHT22;315;48.738;9.126;2023-03-14T04:43:03;8.90;99.90
666;DHT22;315;48.738;9.126;2023-03-14T04:45:29;8.90;99.90
666;DHT22;315;48.738;9.126;2023-03-14T04:47:54;8.90;99.90
666;DHT22;315;48.738;9.126;2023-03-14T04:50:20;8.90;99.90
666;DHT22;315;48.738;9.126;2023-03-14T04:52:45;8.90;99.90
666;DHT22;315;48.738;9.126;2023-03-14T04:55:11;8.90;99.90
666;DHT22;315;48.738;9.126;2023-03-14T04:57:36;8.80;99.90
666;DHT22;315;48.738;9.126;2023-03-14T05:00:03;8.80;99.90
666;DHT22;315;48.738;9.126;2023-03-14T05:02:31;8.80;99.90
666;DHT22;315;48.738;9.126;2023-03-14T05:04:57;8.80;99.90
666;DHT22;315;48.738;9.126;2023-03-14T05:07:22;8.80;99.90
666;DHT22;315;48.738;9.126;2023-03-14T05:09:48;8.70;99.90
666;DHT22;315;48.738;9.126;2023-03-14T05:12:13;8.70;99.90
666;DHT22;315;48.738;9.126;2023-03-14T05:14:39;8.70;99.90
666;DHT22;315;48.738;9.126;2023-03-14T05:17:05;8.70;99.90
666;DHT22;315;48.738;9.126;2023-03-14T05:19:30;8.70;99.90
666;DHT22;315;48.738;9.126;2023-03-14T05:21:56;8.70;99.90
666;DHT22;315;48.738;9.126;2023-03-14T05:24:22;8.80;99.90
666;DHT22;315;48.738;9.126;2023-03-14T05:26:47;8.80;99.90
666;DHT22;315;48.738;9.126;2023-03-14T05:29:13;8.80;99.90
666;DHT22;315;48.738;9.126;2023-03-14T05:31:39;8.80;99.90
666;DHT22;315;48.738;9.126;2023-03-14T05:34:04;8.80;99.90
666;DHT22;315;48.738;9.126;2023-03-14T05:36:30;8.80;99.90
666;DHT22;315;48.738;9.126;2023-03-14T05:38:55;8.80;99.90
666;DHT22;315;48.738;9.126;2023-03-14T05:41:21;8.80;99.90
666;DHT22;315;48.738;9.126;2023-03-14T05:43:46;8.80;99.90
666;DHT22;315;48.738;9.126;2023-03-14T05:46:12;8.80;99.90
666;DHT22;315;48.738;9.126;2023-03-14T05:48:37;8.80;99.90
666;DHT22;315;48.738;9.126;2023-03-14T05:51:03;8.80;99.90
666;DHT22;315;48.738;9.126;2023-03-14T05:53:28;8.80;99.90
666;DHT22;315;48.738;9.126;2023-03-14T05:55:55;8.80;99.90
666;DHT22;315;48.738;9.126;2023-03-14T05:58:21;8.80;99.90
666;DHT22;315;48.738;9.126;2023-03-14T06:00:47;8.70;99.90
666;DHT22;315;48.738;9.126;2023-03-14T06:03:12;8.70;99.90
666;DHT22;315;48.738;9.126;2023-03-14T06:05:38;8.80;99.90
666;DHT22;315;48.738;9.126;2023-03-14T06:08:04;8.80;99.90
666;DHT22;315;48.738;9.126;2023-03-14T06:10:29;8.80;99.90
666;DHT22;315;48.738;9.126;2023-03-14T06:12:55;8.80;99.90
666;DHT22;315;48.738;9.126;2023-03-14T06:15:20;8.80;99.90
666;DHT22;315;48.738;9.126;2023-03-14T06:17:46;8.90;99.90
666;DHT22;315;48.738;9.126;2023-03-14T06:20:12;8.90;99.90
666;DHT22;315;48.738;9.126;2023-03-14T06:22:39;8.90;99.90
666;DHT22;315;48.738;9.126;2023-03-14T06:25:06;8.90;99.90
666;DHT22;315;48.738;9.126;2023-03-14T06:27:32;9.00;99.90
666;DHT22;315;48.738;9.126;2023-03-14T06:29:57;9.00;99.90
666;DHT22;315;48.738;9.126;2023-03-14T06:32:23;9.00;99.90
666;DHT22;315;48.738;9.126;2023-03-14T06:34:48;9.10;99.90
666;DHT22;315;48.738;9.126;2023-03-14T06:37:14;9.10;99.90
666;DHT22;315;48.738;9.126;2023-03-14T06:39:40;9.20;99.90
666;DHT22;315;48.738;9.126;2023-03-14T06:42:05;9.20;99.90
666;DHT22;315;48.738;9.126;2023-03-14T06:44:31;9.30;99.90
666;DHT22;315;48.738;9.126;2023-03-14T06:46:56;9.30;99.90
666;DHT22;315;48.738;9.126;2023-03-14T06:49:22;9.40;99.90
666;DHT22;315;48.738;9.126;2023-03-14T06:51:47;9.50;99.90
666;DHT22;315;48.738;9.126;2023-03-14T06:54:13;9.70;99.90
666;DHT22;315;48.738;9.126;2023-03-14T06:56:38;9.90;99.90
666;DHT22;315;48.738;9.126;2023-03-14T06:59:04;10.00;99.90
666;DHT22;315;48.738;9.126;2023-03-14T07:01:30;10.10;99.90
666;DHT22;315;48.738;9.126;2023-03-14T07:03:57;10.10;99.90
666;DHT22;315;48.738;9.126;2023-03-14T07:06:23;10.10;99.90
666;DHT22;315;48.738;9.126;2023-03-14T07:08:49;10.00;99.90
666;DHT22;315;48.738;9.126;2023-03-14T07:11:15;10.00;99.90
666;DHT22;315;48.738;9.126;2023-03-14T07:13:41;10.10;99.90
666;DHT22;315;48.738;9.126;2023-03-14T07:16:07;10.40;99.90
666;DHT22;315;48.738;9.126;2023-03-14T07:18:32;10.80;99.90
666;DHT22;315;48.738;9.126;2023-03-14T07:20:58;10.70;99.90
666;DHT22;315;48.738;9.126;2023-03-14T07:23:24;10.70;99.90
666;DHT22;315;48.738;9.126;2023-03-14T07:25:49;11.00;99.90
666;DHT22;315;48.738;9.126;2023-03-14T07:28:16;11.20;99.90
666;DHT22;315;48.738;9.126;2023-03-14T07:30:42;11.40;99.90
666;DHT22;315;48.738;9.126;2023-03-14T07:33:07;11.70;99.90
666;DHT22;315;48.738;9.126;2023-03-14T07:35:33;11.80;99.90
666;DHT22;315;48.738;9.126;2023-03-14T07:37:58;11.90;99.90
666;DHT22;315;48.738;9.126;2023-03-14T07:40:24;11.90;99.90
666;DHT22;315;48.738;9.126;2023-03-14T07:42:49;12.00;99.90
666;DHT22;315;48.738;9.126;2023-03-14T07:45:15;12.10;99.90
666;DHT22;315;48.738;9.126;2023-03-14T07:47:41;12.10;99.90
666;DHT22;315;48.738;9.126;2023-03-14T07:50:07;12.20;99.90
666;DHT22;315;48.738;9.126;2023-03-14T07:52:33;12.30;99.90
666;DHT22;315;48.738;9.126;2023-03-14T07:54:58;12.70;99.90
666;DHT22;315;48.738;9.126;2023-03-14T07:57:24;12.80;99.90
666;DHT22;315;48.738;9.126;2023-03-14T07:59:49;12.60;99.90
666;DHT22;315;48.738;9.126;2023-03-14T08:02:15;12.30;99.90
666;DHT22;315;48.738;9.126;2023-03-14T08:04:41;12.40;99.90
666;DHT22;315;48.738;9.126;2023-03-14T08:07:07;12.70;99.90
666;DHT22;315;48.738;9.126;2023-03-14T08:09:32;13.20;99.90
666;DHT22;315;48.738;9.126;2023-03-14T08:11:58;13.30;99.90
666;DHT22;315;48.738;9.126;2023-03-14T08:14:23;13.10;99.90
666;DHT22;315;48.738;9.126;2023-03-14T08:16:50;12.90;99.90
666;DHT22;315;48.738;9.126;2023-03-14T08:19:16;13.10;99.90
666;DHT22;315;48.738;9.126;2023-03-14T08:21:41;13.70;99.90
666;DHT22;315;48.738;9.126;2023-03-14T08:24:07;14.10;99.90
666;DHT22;315;48.738;9.126;2023-03-14T08:26:33;14.70;99.90
666;DHT22;315;48.738;9.126;2023-03-14T08:28:58;15.30;99.90
666;DHT22;315;48.738;9.126;2023-03-14T08:31:24;15.20;99.90
666;DHT22;315;48.738;9.126;2023-03-14T08:33:49;15.30;99.90
666;DHT22;315;48.738;9.126;2023-03-14T08:36:17;15.50;99.90
666;DHT22;315;48.738;9.126;2023-03-14T08:38:43;15.70;99.90
666;DHT22;315;48.738;9.126;2023-03-14T08:41:09;15.80;99.90
666;DHT22;315;48.738;9.126;2023-03-14T08:43:35;15.70;99.90
666;DHT22;315;48.738;9.126;2023-03-14T08:46:01;15.50;99.90
666;DHT22;315;48.738;9.126;2023-03-14T08:48:28;15.70;99.90
666;DHT22;315;48.738;9.126;2023-03-14T08:50:56;15.90;99.90
666;DHT22;315;48.738;9.126;2023-03-14T08:53:22;16.00;99.90
666;DHT22;315;48.738;9.126;2023-03-14T08:55:52;16.50;99.90
666;DHT22;315;48.738;9.126;2023-03-14T08:58:18;16.30;99.90
666;DHT22;315;48.738;9.126;2023-03-14T09:00:43;16.20;99.90
666;DHT22;315;48.738;9.126;2023-03-14T09:03:09;15.60;99.90
666;DHT22;315;48.738;9.126;2023-03-14T09:05:34;15.00;99.90
666;DHT22;315;48.738;9.126;2023-03-14T09:08:00;14.70;99.90
666;DHT22;315;48.738;9.126;2023-03-14T09:10:25;14.00;99.90
666;DHT22;315;48.738;9.126;2023-03-14T09:12:51;13.60;99.90
666;DHT22;315;48.738;9.126;2023-03-14T09:15:16;13.70;99.90
666;DHT22;315;48.738;9.126;2023-03-14T09:17:43;13.60;99.90
666;DHT22;315;48.738;9.126;2023-03-14T09:20:09;13.40;99.90
666;DHT22;315;48.738;9.126;2023-03-14T09:22:35;13.40;99.90
666;DHT22;315;48.738;9.126;2023-03-14T09:25:02;13.50;99.90
666;DHT22;315;48.738;9.126;2023-03-14T09:27:28;14.00;99.90
666;DHT22;315;48.738;9.126;2023-03-14T09:29:53;14.40;99.90
666;DHT22;315;48.738;9.126;2023-03-14T09:32:19;14.80;99.90
666;DHT22;315;48.738;9.126;2023-03-14T09:34:44;14.80;99.90
666;DHT22;315;48.738;9.126;2023-03-14T09:37:10;14.90;99.90
666;DHT22;315;48.738;9.126;2023-03-14T09:39:36;14.30;99.90
666;DHT22;315;48.738;9.126;2023-03-14T09:42:04;13.90;99.90
666;DHT22;315;48.738;9.126;2023-03-14T09:44:35;13.70;99.90
666;DHT22;315;48.738;9.126;2023-03-14T09:47:07;13.50;99.90
666;DHT22;315;48.738;9.126;2023-03-14T09:49:42;13.30;99.90
666;DHT22;315;48.738;9.126;2023-03-14T09:52:33;13.20;99.90
666;DHT22;315;48.738;9.126;2023-03-14T09:55:03;12.90;99.90
666;DHT22;315;48.738;9.126;2023-03-14T09:57:30;12.70;99.90
666;DHT22;315;48.738;9.126;2023-03-14T10:00:04;12.80;99.90
666;DHT22;315;48.738;9.126;2023-03-14T10:02:40;12.80;99.90
666;DHT22;315;48.738;9.126;2023-03-14T10:05:20;13.00;99.90
666;DHT22;315;48.738;9.126;2023-03-14T10:07:46;13.20;99.90
666;DHT22;315;48.738;9.126;2023-03-14T10:10:22;14.00;99.90
666;DHT22;315;48.738;9.126;2023-03-14T10:13:19;15.40;99.90
666;DHT22;315;48.738;9.126;2023-03-14T10:16:07;16.30;99.90
666;DHT22;315;48.738;9.126;2023-03-14T10:18:33;17.30;99.90
666;DHT22;315;48.738;9.126;2023-03-14T10:21:21;17.60;99.90
666;DHT22;315;48.738;9.126;2023-03-14T10:23:49;18.00;99.90
666;DHT22;315;48.738;9.126;2023-03-14T10:26:17;17.60;99.90
666;DHT22;315;48.738;9.126;2023-03-14T10:28:48;17.10;99.90
666;DHT22;315;48.738;9.126;2023-03-14T10:31:16;16.70;99.90
666;DHT22;315;48.738;9.126;2023-03-14T10:34:00;15.80;99.90
666;DHT22;315;48.738;9.126;2023-03-14T10:36:33;14.90;99.90
666;DHT22;315;48.738;9.126;2023-03-14T10:39:22;14.80;99.90
666;DHT22;315;48.738;9.126;2023-03-14T10:41:55;15.20;99.90
666;DHT22;315;48.738;9.126;2023-03-14T10:44:24;15.70;99.90
666;DHT22;315;48.738;9.126;2023-03-14T10:47:00;16.00;99.90
666;DHT22;315;48.738;9.126;2023-03-14T10:49:34;15.40;99.90
666;DHT22;315;48.738;9.126;2023-03-14T10:52:20;15.00;99.90
666;DHT22;315;48.738;9.126;2023-03-14T10:55:08;14.30;99.90
666;DHT22;315;48.738;9.126;2023-03-14T10:57:39;13.80;99.90
666;DHT22;315;48.738;9.126;2023-03-14T11:00:11;13.50;99.90
666;DHT22;315;48.738;9.126;2023-03-14T11:07:48;12.70;99.90
666;DHT22;315;48.738;9.126;2023-03-14T11:10:31;12.70;99.90
666;DHT22;315;48.738;9.126;2023-03-14T11:16:05;12.80;99.90
666;DHT22;315;48.738;9.126;2023-03-14T11:18:43;13.00;99.90
666;DHT22;315;48.738;9.126;2023-03-14T11:33:35;12.00;99.90
666;DHT22;315;48.738;9.126;2023-03-14T11:36:11;11.70;99.90
666;DHT22;315;48.738;9.126;2023-03-14T11:38:56;11.60;99.90
666;DHT22;315;48.738;9.126;2023-03-14T11:41:27;11.60;99.90
666;DHT22;315;48.738;9.126;2023-03-14T11:43:59;11.60;99.90
666;DHT22;315;48.738;9.126;2023-03-14T11:46:25;11.40;99.90
666;DHT22;315;48.738;9.126;2023-03-14T11:49:24;11.30;99.90
666;DHT22;315;48.738;9.126;2023-03-14T11:51:56;11.30;99.90
666;DHT22;315;48.738;9.126;2023-03-14T11:54:35;11.30;99.90
666;DHT22;315;48.738;9.126;2023-03-14T11:57:15;11.20;99.90
666;DHT22;315;48.738;9.126;2023-03-14T12:07:52;11.50;99.90
666;DHT22;315;48.738;9.126;2023-03-14T12:10:26;11.40;99.90
666;DHT22;315;48.738;9.126;2023-03-14T12:12:51;11.20;99.90
666;DHT22;315;48.738;9.126;2023-03-14T12:15:22;11.10;99.90
666;DHT22;315;48.738;9.126;2023-03-14T12:17:54;11.00;99.90
666;DHT22;315;48.738;9.126;2023-03-14T12:20:24;11.00;99.90
666;DHT22;315;48.738;9.126;2023-03-14T12:23:04;11.20;99.90
666;DHT22;315;48.738;9.126;2023-03-14T12:25:32;11.70;99.90
666;DHT22;315;48.738;9.126;2023-03-14T12:28:17;12.50;99.90
666;DHT22;315;48.738;9.126;2023-03-14T12:30:44;13.40;99.90
666;DHT22;315;48.738;9.126;2023-03-14T12:38:16;12.70;99.90
666;DHT22;315;48.738;9.126;2023-03-14T12:43:47;17.80;99.90
666;DHT22;315;48.738;9.126;2023-03-14T12:46:20;18.90;98.50
666;DHT22;315;48.738;9.126;2023-03-14T12:48:48;19.60;94.50
666;DHT22;315;48.738;9.126;2023-03-14T12:51:18;19.00;91.00
666;DHT22;315;48.738;9.126;2023-03-14T12:54:06;19.30;90.90
666;DHT22;315;48.738;9.126;2023-03-14T13:04:36;18.60;74.00
666;DHT22;315;48.738;9.126;2023-03-14T13:07:03;17.90;74.10
666;DHT22;315;48.738;9.126;2023-03-14T13:11:56;15.20;83.90
666;DHT22;315;48.738;9.126;2023-03-14T13:14:28;14.00;91.30
666;DHT22;315;48.738;9.126;2023-03-14T13:16:54;13.10;92.60
666;DHT22;315;48.738;9.126;2023-03-14T13:19:23;12.70;93.10
666;DHT22;315;48.738;9.126;2023-03-14T13:21:50;12.60;90.80
666;DHT22;315;48.738;9.126;2023-03-14T13:24:24;13.40;88.20
666;DHT22;315;48.738;9.126;2023-03-14T13:26:53;13.10;86.00
666;DHT22;315;48.738;9.126;2023-03-14T13:29:21;12.80;87.90
666;DHT22;315;48.738;9.126;2023-03-14T13:31:49;12.30;90.70
666;DHT22;315;48.738;9.126;2023-03-14T13:34:15;12.20;92.20
666;DHT22;315;48.738;9.126;2023-03-14T13:36:41;12.10;91.00
666;DHT22;315;48.738;9.126;2023-03-14T13:39:17;12.00;91.30
666;DHT22;315;48.738;9.126;2023-03-14T13:41:45;12.30;91.20
666;DHT22;315;48.738;9.126;2023-03-14T13:44:27;11.90;91.30
666;DHT22;315;48.738;9.126;2023-03-14T13:47:02;11.50;92.50
666;DHT22;315;48.738;9.126;2023-03-14T13:49:30;11.30;93.30
666;DHT22;315;48.738;9.126;2023-03-14T13:51:58;11.00;94.70
666;DHT22;315;48.738;9.126;2023-03-14T13:54:26;11.00;94.30
666;DHT22;315;48.738;9.126;2023-03-14T13:57:03;10.90;93.90
666;DHT22;315;48.738;9.126;2023-03-14T13:59:30;10.80;90.20
666;DHT22;315;48.738;9.126;2023-03-14T14:02:00;10.80;90.10
666;DHT22;315;48.738;9.126;2023-03-14T14:04:26;10.70;89.60
666;DHT22;315;48.738;9.126;2023-03-14T14:06:58;10.60;90.30
666;DHT22;315;48.738;9.126;2023-03-14T14:09:29;10.60;89.30
666;DHT22;315;48.738;9.126;2023-03-14T14:12:00;10.40;88.80
666;DHT22;315;48.738;9.126;2023-03-14T14:14:40;10.30;86.30
666;DHT22;315;48.738;9.126;2023-03-14T14:17:11;10.40;86.10
666;DHT22;315;48.738;9.126;2023-03-14T14:19:39;10.40;85.20
666;DHT22;315;48.738;9.126;2023-03-14T14:22:05;10.30;86.20
666;DHT22;315;48.738;9.126;2023-03-14T14:24:32;10.30;86.20
666;DHT22;315;48.738;9.126;2023-03-14T14:29:34;10.40;88.40
666;DHT22;315;48.738;9.126;2023-03-14T14:32:19;10.30;88.60
666;DHT22;315;48.738;9.126;2023-03-14T14:34:57;10.30;89.70
666;DHT22;315;48.738;9.126;2023-03-14T14:37:28;10.20;90.80
666;DHT22;315;48.738;9.126;2023-03-14T14:39:57;10.20;91.30
666;DHT22;315;48.738;9.126;2023-03-14T14:42:27;10.20;92.00
666;DHT22;315;48.738;9.126;2023-03-14T14:44:56;10.10;92.10
666;DHT22;315;48.738;9.126;2023-03-14T14:47:25;10.20;91.90
666;DHT22;315;48.738;9.126;2023-03-14T14:49:52;10.00;91.50
666;DHT22;315;48.738;9.126;2023-03-14T14:52:41;9.90;91.60
666;DHT22;315;48.738;9.126;2023-03-14T14:55:32;9.90;91.90
666;DHT22;315;48.738;9.126;2023-03-14T14:57:58;9.90;91.40
666;DHT22;315;48.738;9.126;2023-03-14T15:00:39;9.90;91.30
666;DHT22;315;48.738;9.126;2023-03-14T15:03:13;9.80;91.90
666;DHT22;315;48.738;9.126;2023-03-14T15:05:40;9.70;93.20
666;DHT22;315;48.738;9.126;2023-03-14T15:08:12;9.90;92.90
666;DHT22;315;48.738;9.126;2023-03-14T15:10:38;10.00;93.00
666;DHT22;315;48.738;9.126;2023-03-14T15:13:03;10.20;92.40
666;DHT22;315;48.738;9.126;2023-03-14T15:15:29;10.40;91.40
666;DHT22;315;48.738;9.126;2023-03-14T15:17:54;10.60;90.50
666;DHT22;315;48.738;9.126;2023-03-14T15:20:20;10.80;90.50
666;DHT22;315;48.738;9.126;2023-03-14T15:22:49;10.90;91.00
666;DHT22;315;48.738;9.126;2023-03-14T15:25:15;10.70;90.70
666;DHT22;315;48.738;9.126;2023-03-14T15:27:40;10.60;90.80
666;DHT22;315;48.738;9.126;2023-03-14T15:30:13;10.30;91.40
666;DHT22;315;48.738;9.126;2023-03-14T15:32:39;10.20;92.10
666;DHT22;315;48.738;9.126;2023-03-14T15:35:05;10.10;92.00
666;DHT22;315;48.738;9.126;2023-03-14T15:37:30;10.10;93.00
666;DHT22;315;48.738;9.126;2023-03-14T15:39:56;10.10;93.40
666;DHT22;315;48.738;9.126;2023-03-14T15:42:25;10.10;93.50
666;DHT22;315;48.738;9.126;2023-03-14T15:44:50;9.80;94.20
666;DHT22;315;48.738;9.126;2023-03-14T15:47:16;9.90;94.30
666;DHT22;315;48.738;9.126;2023-03-14T15:49:41;9.80;94.50
666;DHT22;315;48.738;9.126;2023-03-14T15:52:08;9.70;95.30
666;DHT22;315;48.738;9.126;2023-03-14T15:54:34;9.60;95.40
666;DHT22;315;48.738;9.126;2023-03-14T15:57:00;9.50;95.70
666;DHT22;315;48.738;9.126;2023-03-14T15:59:25;9.50;96.40
666;DHT22;315;48.738;9.126;2023-03-14T16:01:51;9.60;96.90
666;DHT22;315;48.738;9.126;2023-03-14T16:04:17;9.60;97.40
666;DHT22;315;48.738;9.126;2023-03-14T16:06:44;9.50;97.20
666;DHT22;315;48.738;9.126;2023-03-14T16:09:10;9.40;97.00
666;DHT22;315;48.738;9.126;2023-03-14T16:11:36;9.20;97.90
666;DHT22;315;48.738;9.126;2023-03-14T16:14:02;9.20;98.50
666;DHT22;315;48.738;9.126;2023-03-14T16:16:27;9.20;98.80
666;DHT22;315;48.738;9.126;2023-03-14T16:18:53;9.20;98.50
666;DHT22;315;48.738;9.126;2023-03-14T16:21:19;9.20;98.90
666;DHT22;315;48.738;9.126;2023-03-14T16:23:45;9.20;98.90
666;DHT22;315;48.738;9.126;2023-03-14T16:26:19;9.20;99.80
666;DHT22;315;48.738;9.126;2023-03-14T16:28:46;9.20;99.80
666;DHT22;315;48.738;9.126;2023-03-14T16:31:14;9.10;99.90
666;DHT22;315;48.738;9.126;2023-03-14T16:33:43;9.00;99.90
666;DHT22;315;48.738;9.126;2023-03-14T16:36:10;9.00;99.90
666;DHT22;315;48.738;9.126;2023-03-14T16:38:38;8.90;99.90
666;DHT22;315;48.738;9.126;2023-03-14T16:41:06;8.90;99.90
666;DHT22;315;48.738;9.126;2023-03-14T16:43:33;8.90;99.90
666;DHT22;315;48.738;9.126;2023-03-14T16:46:01;8.90;99.90
666;DHT22;315;48.738;9.126;2023-03-14T16:48:27;8.90;99.90
666;DHT22;315;48.738;9.126;2023-03-14T16:50:54;8.90;99.90
666;DHT22;315;48.738;9.126;2023-03-14T16:53:20;9.00;99.90
666;DHT22;315;48.738;9.126;2023-03-14T16:55:46;9.10;99.90
666;DHT22;315;48.738;9.126;2023-03-14T16:58:11;9.20;99.90
666;DHT22;315;48.738;9.126;2023-03-14T17:00:37;9.20;99.90
666;DHT22;315;48.738;9.126;2023-03-14T17:03:03;9.30;99.90
666;DHT22;315;48.738;9.126;2023-03-14T17:05:29;9.30;99.90
666;DHT22;315;48.738;9.126;2023-03-14T17:07:55;9.30;99.90
666;DHT22;315;48.738;9.126;2023-03-14T17:10:20;9.20;99.90
666;DHT22;315;48.738;9.126;2023-03-14T17:12:46;9.20;99.90
666;DHT22;315;48.738;9.126;2023-03-14T17:15:11;9.20;99.90
666;DHT22;315;48.738;9.126;2023-03-14T17:17:37;9.10;99.90
666;DHT22;315;48.738;9.126;2023-03-14T17:20:04;9.10;99.90
666;DHT22;315;48.738;9.126;2023-03-14T17:22:30;9.10;99.90
666;DHT22;315;48.738;9.126;2023-03-14T17:24:56;8.90;99.90
666;DHT22;315;48.738;9.126;2023-03-14T17:27:21;8.90;99.90
666;DHT22;315;48.738;9.126;2023-03-14T17:29:47;8.80;99.90
666;DHT22;315;48.738;9.126;2023-03-14T17:32:16;8.80;99.90
666;DHT22;315;48.738;9.126;2023-03-14T17:34:42;8.70;99.90
666;DHT22;315;48.738;9.126;2023-03-14T17:37:07;8.50;99.90
666;DHT22;315;48.738;9.126;2023-03-14T17:39:33;8.20;99.90
666;DHT22;315;48.738;9.126;2023-03-14T17:41:58;8.10;99.90
666;DHT22;315;48.738;9.126;2023-03-14T17:44:24;8.00;99.90
666;DHT22;315;48.738;9.126;2023-03-14T17:46:49;8.00;99.90